Terminal Aerodrome Forecast
Issued by NWS

Home | Current Version | Previous Version | Text Only | Print | Product List | Glossary On
Versions: 1 2 3 4 5 6 7 8 9 10 11 12 13 14 15 16 17 18 19 20 21 22 23 24 25
000
FTUS44 KLIX 280800 AAA
TAFHDC
TAF AMD
KHDC 280808Z 2808/2906 00000KT P6SM SCT250
     FM281400 VRB04KT P6SM BKN040
     FM281800 12005KT P6SM VCTS BKN040CB
     FM290100 13004KT P6SM SCT050 SCT110=

USA.gov is the U.S. government's official web portal to all federal, state and local government web resources and services.